Time;durP1;ratioP1;P1;durP2;ratioP2;P2;SDS_P1;SDS_P2;PMS_P1;PMS_P2;Temp;Humidity;BMP_temperature;BMP_pressure;BME280_temperature;BME280_humidity;BME280_pressure;Samples;Min_cycle;Max_cycle;Signal;HPM_P1;HPM_P2
2021/04/11 00:01:37;;;;;;;9.85;6.13;;;9.80;99.90;;;;;;5094558;28;20095;-68
2021/04/11 00:04:02;;;;;;;7.95;5.85;;;9.90;99.90;;;;;;5094544;28;20074;-68
2021/04/11 00:06:28;;;;;;;10.77;6.10;;;9.70;99.90;;;;;;5093965;28;20020;-68
2021/04/11 00:08:53;;;;;;;11.68;6.38;;;9.70;99.90;;;;;;5093853;28;20533;-68
2021/04/11 00:11:21;;;;;;;8.13;6.57;;;9.70;99.90;;;;;;5094292;28;20111;-68
2021/04/11 00:13:50;;;;;;;10.35;6.22;;;9.70;99.90;;;;;;5094450;28;20104;-68
2021/04/11 00:16:16;;;;;;;11.07;6.43;;;9.70;99.90;;;;;;5093179;28;20017;-68
2021/04/11 00:18:42;;;;;;;11.43;7.10;;;9.70;99.90;;;;;;5094076;28;20077;-68
2021/04/11 00:21:07;;;;;;;9.13;6.35;;;9.60;99.90;;;;;;5092612;28;20060;-68
2021/04/11 00:23:33;;;;;;;11.48;7.13;;;9.60;99.90;;;;;;5093132;28;20077;-68
2021/04/11 00:25:59;;;;;;;8.77;6.93;;;9.70;99.90;;;;;;5092803;28;20423;-68
2021/04/11 00:28:25;;;;;;;11.32;6.68;;;9.60;99.90;;;;;;5094237;28;20028;-68
2021/04/11 00:30:50;;;;;;;10.27;7.55;;;9.60;99.90;;;;;;5093898;28;20033;-68
2021/04/11 00:33:26;;;;;;;11.88;7.47;;;9.60;99.90;;;;;;5093908;28;20073;-68
2021/04/11 00:35:53;;;;;;;11.60;7.07;;;9.50;99.90;;;;;;5093398;28;20044;-68
2021/04/11 00:38:19;;;;;;;15.55;7.53;;;9.50;99.90;;;;;;5094118;28;20019;-68
2021/04/11 00:40:44;;;;;;;12.90;7.97;;;9.50;99.90;;;;;;5093881;28;20376;-68
2021/04/11 00:43:14;;;;;;;12.60;7.97;;;9.50;99.90;;;;;;5093785;28;20373;-68
2021/04/11 00:46:09;;;;;;;13.35;8.73;;;9.50;99.90;;;;;;5093745;28;20028;-68
2021/04/11 00:48:35;;;;;;;14.07;6.72;;;9.40;99.90;;;;;;5093368;28;20043;-68
2021/04/11 00:51:09;;;;;;;11.52;7.60;;;9.40;99.90;;;;;;5093958;28;20377;-68
2021/04/11 00:53:34;;;;;;;9.65;7.13;;;9.40;99.90;;;;;;5093391;28;20032;-68
2021/04/11 00:56:01;;;;;;;11.10;6.70;;;9.40;99.90;;;;;;5093873;28;20016;-68
2021/04/11 00:58:29;;;;;;;8.55;6.63;;;9.50;99.90;;;;;;5093639;28;20012;-68
2021/04/11 01:00:54;;;;;;;12.82;7.03;;;9.50;99.90;;;;;;5093862;28;20020;-68
2021/04/11 01:03:24;;;;;;;8.75;6.85;;;9.40;99.90;;;;;;5093860;28;20031;-68
2021/04/11 01:05:50;;;;;;;10.73;6.88;;;9.50;99.90;;;;;;5093546;28;20170;-68
2021/04/11 01:08:20;;;;;;;8.98;6.93;;;9.50;99.90;;;;;;5093800;28;20027;-68
2021/04/11 01:10:55;;;;;;;8.85;6.57;;;9.50;99.90;;;;;;5093790;28;20461;-68
2021/04/11 01:13:21;;;;;;;11.35;7.10;;;9.50;99.90;;;;;;5093233;28;20071;-68
2021/04/11 01:15:48;;;;;;;10.02;6.95;;;9.50;99.90;;;;;;5093662;28;20028;-68
2021/04/11 01:18:14;;;;;;;9.60;6.68;;;9.50;99.90;;;;;;5092260;28;20080;-68
2021/04/11 01:20:39;;;;;;;11.63;6.47;;;9.50;99.90;;;;;;5093418;28;20020;-68
2021/04/11 01:23:31;;;;;;;14.35;6.90;;;9.60;99.90;;;;;;5096646;28;20365;-68
2021/04/11 01:25:59;;;;;;;11.55;6.85;;;9.60;99.90;;;;;;5097472;28;20028;-68
2021/04/11 01:28:30;;;;;;;8.60;6.03;;;9.70;99.90;;;;;;5095757;28;20036;-68
2021/04/11 01:31:05;;;;;;;9.93;6.50;;;9.70;99.90;;;;;;5097404;28;20016;-68
2021/04/11 01:33:32;;;;;;;11.63;6.82;;;9.60;99.90;;;;;;5096759;28;20051;-68
2021/04/11 01:35:59;;;;;;;9.52;6.45;;;9.70;99.90;;;;;;5096605;28;20044;-68
2021/04/11 01:38:26;;;;;;;11.63;6.45;;;9.70;99.90;;;;;;5095824;28;20026;-68
2021/04/11 01:41:18;;;;;;;10.52;6.38;;;9.70;99.90;;;;;;5097329;28;20026;-68
2021/04/11 01:43:44;;;;;;;7.25;6.22;;;9.70;99.90;;;;;;5096560;28;20059;-68
2021/04/11 01:46:12;;;;;;;9.57;6.15;;;9.80;99.90;;;;;;5096848;28;20027;-68
2021/04/11 01:48:38;;;;;;;9.57;6.63;;;9.80;99.90;;;;;;5095917;28;20020;-68
2021/04/11 01:51:06;;;;;;;8.27;6.32;;;9.80;99.90;;;;;;5095321;28;20077;-68
2021/04/11 01:53:32;;;;;;;10.52;6.20;;;9.80;99.90;;;;;;5096714;28;20016;-68
2021/04/11 01:55:59;;;;;;;9.02;6.35;;;9.80;99.90;;;;;;5096349;28;20024;-68
2021/04/11 01:58:26;;;;;;;9.77;5.78;;;9.90;99.90;;;;;;5096898;28;20376;-68
2021/04/11 02:01:32;;;;;;;8.30;6.18;;;9.90;99.90;;;;;;5096809;28;20099;-68
2021/04/11 02:04:00;;;;;;;10.23;6.15;;;9.90;99.90;;;;;;5096244;28;20048;-68
2021/04/11 02:06:28;;;;;;;10.60;6.40;;;9.90;99.90;;;;;;5096712;28;20027;-68
2021/04/11 02:08:57;;;;;;;7.22;5.70;;;9.90;99.90;;;;;;5096409;28;20020;-68
2021/04/11 02:11:23;;;;;;;11.57;6.22;;;9.90;99.90;;;;;;5094806;28;20028;-68
2021/04/11 02:13:49;;;;;;;12.18;6.45;;;9.90;99.90;;;;;;5096578;28;20535;-68
2021/04/11 02:16:20;;;;;;;9.38;6.32;;;10.00;99.90;;;;;;5096474;28;20028;-68
2021/04/11 02:18:46;;;;;;;8.48;6.45;;;10.00;99.90;;;;;;5096469;28;20027;-68
2021/04/11 02:21:21;;;;;;;8.75;6.55;;;10.00;99.90;;;;;;5096432;28;20357;-67
2021/04/11 02:23:47;;;;;;;8.07;6.00;;;10.00;99.90;;;;;;5094952;28;20024;-68
2021/04/11 02:26:14;;;;;;;8.85;6.10;;;10.00;99.90;;;;;;5096347;28;20476;-68
2021/04/11 02:28:40;;;;;;;7.97;6.28;;;10.00;99.90;;;;;;5096346;28;20032;-68
2021/04/11 02:31:19;;;;;;;9.00;6.13;;;10.00;99.90;;;;;;5095985;28;20027;-68
2021/04/11 02:36:24;;;;;;;10.10;6.15;;;9.90;99.90;;;;;;5091808;27;20352;-67
2021/04/11 02:38:53;;;;;;;8.40;6.50;;;9.90;99.90;;;;;;5089865;28;20516;-67
2021/04/11 02:41:24;;;;;;;8.20;5.70;;;9.90;99.90;;;;;;5091517;28;20016;-67
2021/04/11 02:43:50;;;;;;;11.20;6.82;;;10.00;99.90;;;;;;5089938;28;20020;-67
2021/04/11 02:46:17;;;;;;;10.93;6.65;;;9.90;99.90;;;;;;5089589;28;20496;-67
2021/04/11 02:48:43;;;;;;;11.90;6.45;;;9.90;99.90;;;;;;5091371;28;20021;-68
2021/04/11 02:51:10;;;;;;;11.43;6.75;;;9.90;99.90;;;;;;5091331;28;20094;-68
2021/04/11 02:53:38;;;;;;;9.05;6.00;;;9.90;99.90;;;;;;5090978;28;20021;-67
2021/04/11 02:56:05;;;;;;;11.13;6.38;;;9.90;99.90;;;;;;5090877;28;20115;-67
2021/04/11 02:58:31;;;;;;;10.02;6.68;;;9.90;99.90;;;;;;5091195;28;20103;-67
2021/04/11 03:01:02;;;;;;;9.93;6.70;;;9.90;99.90;;;;;;5090567;28;20044;-67
2021/04/11 03:03:28;;;;;;;10.05;6.82;;;9.80;99.90;;;;;;5091090;28;20530;-67
2021/04/11 03:05:57;;;;;;;9.40;6.28;;;9.80;99.90;;;;;;5089249;28;20110;-67
2021/04/11 03:08:28;;;;;;;9.60;6.70;;;9.80;99.90;;;;;;5090998;28;20047;-67
2021/04/11 03:11:10;;;;;;;13.93;7.28;;;9.80;99.90;;;;;;5090381;28;20066;-67
2021/04/11 03:13:36;;;;;;;9.40;7.00;;;9.80;99.90;;;;;;5090898;28;20016;-67
2021/04/11 03:16:02;;;;;;;8.43;6.80;;;9.80;99.90;;;;;;5090767;28;20464;-67
2021/04/11 03:18:28;;;;;;;8.45;6.32;;;9.80;99.90;;;;;;5090801;28;20103;-67
2021/04/11 03:20:56;;;;;;;8.25;6.53;;;9.70;99.90;;;;;;5090475;28;20028;-67
2021/04/11 03:23:22;;;;;;;7.57;6.10;;;9.70;99.90;;;;;;5090697;28;20028;-67
2021/04/11 03:25:56;;;;;;;8.15;6.35;;;9.70;99.90;;;;;;5090617;28;20024;-67
2021/04/11 03:28:30;;;;;;;11.25;6.72;;;9.80;99.90;;;;;;5090364;28;20028;-67
2021/04/11 03:31:04;;;;;;;10.07;6.70;;;9.70;99.90;;;;;;5090296;28;20025;-68
2021/04/11 03:33:31;;;;;;;;;;;9.80;99.90;;;;;;5089092;28;20031;-67
2021/04/11 03:35:57;;;;;;;8.90;6.47;;;9.80;99.90;;;;;;5089736;28;19916;-68
2021/04/11 03:38:26;;;;;;;10.73;7.07;;;9.80;99.90;;;;;;5090173;28;20025;-67
2021/04/11 03:40:54;;;;;;;8.98;6.72;;;9.80;99.90;;;;;;5090402;28;20028;-67
2021/04/11 03:43:25;;;;;;;9.48;7.00;;;9.80;99.90;;;;;;5089781;28;20050;-67
2021/04/11 03:45:53;;;;;;;9.98;6.78;;;9.80;99.90;;;;;;5086946;28;20028;-67
2021/04/11 03:48:31;;;;;;;7.80;6.18;;;9.80;99.90;;;;;;5076763;28;20025;-67
2021/04/11 03:51:05;;;;;;;8.95;6.13;;;9.90;99.90;;;;;;5076181;28;20036;-67
2021/04/11 03:53:42;;;;;;;8.35;5.60;;;9.90;99.90;;;;;;5076375;28;20036;-67
2021/04/11 03:56:10;;;;;;;7.65;5.70;;;10.00;99.90;;;;;;5076550;28;20025;-67
2021/04/11 03:58:43;;;;;;;8.05;5.60;;;10.10;99.90;;;;;;5076278;28;20027;-67
2021/04/11 04:01:15;;;;;;;6.00;5.40;;;10.10;99.90;;;;;;5076555;28;20103;-67
2021/04/11 04:03:42;;;;;;;11.18;6.28;;;10.10;99.90;;;;;;5076459;28;20492;-67
2021/04/11 04:06:21;;;;;;;10.23;6.30;;;10.10;99.90;;;;;;5076444;28;20031;-67
2021/04/11 04:08:46;;;;;;;10.40;7.07;;;10.10;99.90;;;;;;5076384;28;20099;-67
2021/04/11 04:11:36;;;;;;;8.55;7.25;;;10.00;99.90;;;;;;5076073;28;20501;-67
2021/04/11 04:14:28;;;;;;;10.93;7.60;;;9.90;99.90;;;;;;5076226;28;20048;-67
2021/04/11 04:17:08;;;;;;;13.93;8.10;;;9.90;99.90;;;;;;5076265;28;20458;-67
2021/04/11 04:19:52;;;;;;;10.95;7.90;;;9.90;99.90;;;;;;5075633;28;20111;-67
2021/04/11 04:22:40;;;;;;;13.93;9.88;;;9.90;99.90;;;;;;5075090;28;20021;-67
2021/04/11 04:31:03;;;;;;;26.73;18.92;;;9.60;99.90;;;;;;5112197;27;20351;-67
2021/04/11 04:33:43;;;;;;;33.40;21.30;;;9.50;99.90;;;;;;5111364;28;20028;-67
2021/04/11 04:36:32;;;;;;;28.40;20.08;;;9.50;99.90;;;;;;5111638;28;20034;-67
2021/04/11 04:39:11;;;;;;;34.97;23.13;;;9.30;99.90;;;;;;5111841;28;20024;-67
2021/04/11 04:42:06;;;;;;;35.30;24.30;;;9.20;99.90;;;;;;5111797;28;20023;-67
2021/04/11 04:44:46;;;;;;;36.03;23.65;;;9.20;99.90;;;;;;5111636;28;20055;-67
2021/04/11 04:47:32;;;;;;;32.50;21.23;;;9.10;99.90;;;;;;5111665;28;20016;-67
2021/04/11 04:50:20;;;;;;;31.42;20.63;;;8.90;99.90;;;;;;5110116;28;20028;-67
2021/04/11 04:53:08;;;;;;;25.88;17.52;;;8.80;99.90;;;;;;5109695;28;20025;-67
2021/04/11 04:55:36;;;;;;;26.85;18.13;;;8.70;99.90;;;;;;5110039;28;20522;-67
2021/04/11 04:58:11;;;;;;;25.85;16.40;;;8.70;99.90;;;;;;5111452;28;20119;-67
2021/04/11 05:00:44;;;;;;;25.90;17.73;;;8.60;99.90;;;;;;5111116;28;20067;-67
2021/04/11 05:03:15;;;;;;;22.48;16.38;;;8.60;99.90;;;;;;5111385;28;20057;-67
2021/04/11 05:05:46;;;;;;;23.60;16.17;;;8.50;99.90;;;;;;5111017;28;20028;-67
2021/04/11 05:08:25;;;;;;;22.20;14.38;;;8.50;99.90;;;;;;5109790;28;20036;-67
2021/04/11 05:11:06;;;;;;;22.90;15.48;;;8.40;99.90;;;;;;5110832;28;20020;-67
2021/04/11 05:13:38;;;;;;;22.42;14.85;;;8.40;99.90;;;;;;5111163;28;20020;-67
2021/04/11 05:16:09;;;;;;;19.45;13.88;;;8.40;99.90;;;;;;5110913;28;20095;-67
2021/04/11 05:18:40;;;;;;;21.25;14.55;;;8.30;99.90;;;;;;5110810;28;20040;-67
2021/04/11 05:21:11;;;;;;;18.67;13.45;;;8.30;99.90;;;;;;5110765;28;20012;-67
2021/04/11 05:23:41;;;;;;;15.40;11.65;;;8.10;99.90;;;;;;5110744;28;20020;-67
2021/04/11 05:26:14;;;;;;;16.83;11.65;;;8.10;99.90;;;;;;5109525;28;20016;-67
2021/04/11 05:29:03;;;;;;;16.00;11.77;;;8.10;99.90;;;;;;5110642;28;20054;-67
2021/04/11 05:31:32;;;;;;;16.42;10.80;;;8.00;99.90;;;;;;5110802;28;20016;-67
2021/04/11 05:34:00;;;;;;;14.68;10.50;;;8.00;99.90;;;;;;5110528;28;20099;-67
2021/04/11 05:36:54;;;;;;;14.55;10.90;;;8.00;99.90;;;;;;5109049;28;20016;-67
2021/04/11 05:39:30;;;;;;;14.48;11.02;;;8.00;99.90;;;;;;5110308;28;20100;-67
2021/04/11 05:42:17;;;;;;;17.35;11.13;;;7.90;99.90;;;;;;5097851;28;20107;-67
2021/04/11 05:44:49;;;;;;;14.73;10.73;;;7.80;99.90;;;;;;5097058;28;20026;-67
2021/04/11 05:47:35;;;;;;;13.68;9.73;;;7.80;99.90;;;;;;5096710;28;20035;-67
2021/04/11 05:50:07;;;;;;;11.60;8.30;;;7.70;99.90;;;;;;5095835;28;20032;-67
2021/04/11 05:52:39;;;;;;;10.40;7.90;;;7.70;99.90;;;;;;5095354;28;20027;-67
2021/04/11 05:55:08;;;;;;;9.30;7.30;;;7.60;99.90;;;;;;5095638;28;20055;-67
2021/04/11 05:57:38;;;;;;;7.95;6.63;;;7.60;99.90;;;;;;5096764;28;20020;-67
2021/04/11 06:00:09;;;;;;;9.30;7.18;;;7.40;99.90;;;;;;5096717;28;20066;-67
2021/04/11 06:05:26;;;;;;;10.60;7.28;;;7.30;99.90;;;;;;5112256;27;20347;-68
2021/04/11 06:07:59;;;;;;;9.57;6.97;;;7.30;99.90;;;;;;5110255;28;20024;-68
2021/04/11 06:10:39;;;;;;;9.93;7.40;;;7.30;99.90;;;;;;5111340;28;20107;-68
2021/04/11 06:13:12;;;;;;;11.13;7.45;;;7.30;99.90;;;;;;5110400;28;20036;-68
2021/04/11 06:15:50;;;;;;;9.98;7.53;;;7.20;99.90;;;;;;5111470;28;20039;-67
2021/04/11 06:18:15;;;;;;;10.57;7.93;;;7.10;99.90;;;;;;5111163;28;20078;-67
2021/04/11 06:20:46;;;;;;;11.68;8.40;;;7.10;99.90;;;;;;5109819;28;20362;-67
2021/04/11 06:23:30;;;;;;;13.45;8.70;;;7.10;99.90;;;;;;5111544;28;20457;-67
2021/04/11 06:26:28;;;;;;;13.00;8.48;;;7.00;99.90;;;;;;5111310;28;20099;-68
2021/04/11 06:29:06;;;;;;;9.20;6.93;;;6.90;99.90;;;;;;5111560;28;20038;-67
2021/04/11 06:31:38;;;;;;;8.07;6.45;;;6.80;99.90;;;;;;5111174;28;20020;-67
2021/04/11 06:34:10;;;;;;;8.15;6.60;;;6.70;99.90;;;;;;5110038;28;20024;-67
2021/04/11 06:36:39;;;;;;;8.57;6.50;;;6.50;99.90;;;;;;5111377;28;20020;-67
2021/04/11 06:39:13;;;;;;;8.18;6.57;;;6.40;99.90;;;;;;5110756;28;20038;-67
2021/04/11 06:42:19;;;;;;;8.85;6.80;;;6.40;99.90;;;;;;5110138;28;20360;-67
2021/04/11 06:48:11;;;;;;;9.70;7.50;;;6.40;99.90;;;;;;5112169;27;20420;-67
2021/04/11 06:54:03;;;;;;;9.18;7.38;;;6.20;99.90;;;;;;5112083;27;20404;-67
2021/04/11 06:56:55;;;;;;;10.73;8.13;;;6.30;99.90;;;;;;5111565;28;20423;-67
2021/04/11 06:59:40;;;;;;;12.88;8.80;;;6.30;99.90;;;;;;5111260;28;20027;-67
2021/04/11 07:02:45;;;;;;;13.43;9.95;;;6.20;99.90;;;;;;5111520;28;20024;-67
2021/04/11 07:05:47;;;;;;;14.38;9.75;;;6.20;99.90;;;;;;5111160;28;20020;-67
2021/04/11 07:08:52;;;;;;;14.23;10.65;;;6.30;99.90;;;;;;5111669;28;20020;-67
2021/04/11 07:11:49;;;;;;;13.85;9.73;;;6.30;99.90;;;;;;5110960;28;20035;-67
2021/04/11 07:14:54;;;;;;;12.07;9.25;;;6.20;99.90;;;;;;5111130;28;20056;-67
2021/04/11 07:17:49;;;;;;;16.13;10.90;;;6.10;99.90;;;;;;5110804;28;20375;-67
2021/04/11 07:20:54;;;;;;;18.63;11.98;;;6.10;99.90;;;;;;5110588;28;20030;-67
2021/04/11 07:26:54;;;;;;;24.58;18.27;;;5.90;99.90;;;;;;5069799;28;20393;-68
2021/04/11 07:30:00;;;;;;;23.88;15.38;;;5.70;99.90;;;;;;5069835;28;20035;-68
2021/04/11 07:33:02;;;;;;;20.30;13.88;;;5.70;99.90;;;;;;5071281;28;20486;-67
2021/04/11 07:35:56;;;;;;;25.58;16.67;;;5.70;99.90;;;;;;5070754;28;20485;-68
2021/04/11 07:39:01;;;;;;;25.42;16.80;;;5.60;99.90;;;;;;5071050;28;20021;-67
2021/04/11 07:41:55;;;;;;;28.38;16.48;;;5.60;99.90;;;;;;5070441;28;20028;-67
2021/04/11 07:44:45;;;;;;;30.33;16.80;;;5.60;99.90;;;;;;5070915;28;20123;-67
2021/04/11 07:47:41;;;;;;;26.92;17.10;;;5.60;99.90;;;;;;5069124;28;20461;-67
2021/04/11 07:50:23;;;;;;;25.95;16.60;;;5.60;99.90;;;;;;5070456;28;20040;-67
2021/04/11 07:56:13;;;;;;;36.28;18.90;;;5.60;99.90;;;;;;5071651;28;20345;-67
2021/04/11 07:59:18;;;;;;;30.65;18.73;;;5.60;99.90;;;;;;5036238;28;20064;-67
2021/04/11 08:02:03;;;;;;;29.58;17.77;;;5.60;99.90;;;;;;5070468;28;20020;-67
2021/04/11 08:07:31;;;;;;;29.73;17.90;;;5.70;99.90;;;;;;5112183;27;20704;-67
2021/04/11 08:10:25;;;;;;;33.13;18.65;;;5.60;99.90;;;;;;5110191;28;20020;-67
2021/04/11 08:13:09;;;;;;;30.55;18.45;;;5.60;99.90;;;;;;5111295;28;20016;-67
2021/04/11 08:15:54;;;;;;;;;;;5.60;99.90;;;;;;5112007;28;20477;-67
2021/04/11 08:18:38;;;;;;;31.27;18.02;;;5.70;99.90;;;;;;5111182;28;20014;-67
2021/04/11 08:21:21;;;;;;;31.45;18.73;;;5.80;99.90;;;;;;5111147;28;20046;-67
2021/04/11 08:24:12;;;;;;;25.52;16.90;;;5.80;99.90;;;;;;5111668;28;20115;-67
2021/04/11 08:29:57;;;;;;;30.85;17.52;;;5.80;99.90;;;;;;5112187;27;20347;-67
2021/04/11 08:33:03;;;;;;;26.63;16.02;;;5.70;99.90;;;;;;5111216;28;20032;-67
2021/04/11 08:35:59;;;;;;;23.63;15.85;;;5.70;99.90;;;;;;5111219;28;20019;-67
2021/04/11 08:38:51;;;;;;;23.10;14.55;;;5.70;99.90;;;;;;5111100;28;20032;-67
2021/04/11 08:41:44;;;;;;;26.25;13.63;;;5.70;99.90;;;;;;5111378;28;20105;-67
2021/04/11 08:47:26;;;;;;;22.70;13.32;;;5.50;99.90;;;;;;5112246;27;20735;-67
2021/04/11 08:50:04;;;;;;;22.40;12.82;;;5.50;99.90;;;;;;5111429;28;20051;-67
2021/04/11 08:52:58;;;;;;;17.38;11.77;;;5.50;99.90;;;;;;5111521;28;20107;-67
2021/04/11 08:55:55;;;;;;;20.35;12.07;;;5.40;99.90;;;;;;5111419;28;20036;-67
2021/04/11 08:58:51;;;;;;;16.20;10.68;;;5.50;99.90;;;;;;5111134;28;20069;-67
2021/04/11 09:01:44;;;;;;;14.40;9.35;;;5.60;99.90;;;;;;5111052;28;20088;-67
2021/04/11 09:04:33;;;;;;;12.27;8.73;;;5.70;99.90;;;;;;5109832;28;20023;-67
2021/04/11 09:07:39;;;;;;;12.02;8.32;;;5.70;99.90;;;;;;5111071;28;20028;-67
2021/04/11 09:10:31;;;;;;;9.27;6.97;;;5.90;99.90;;;;;;5110856;28;20472;-67
2021/04/11 09:16:06;;;;;;;9.95;7.05;;;6.00;99.90;;;;;;5112126;27;20351;-67
2021/04/11 09:18:44;;;;;;;9.80;6.45;;;6.00;99.90;;;;;;5111191;28;20028;-67
2021/04/11 09:21:38;;;;;;;10.02;7.55;;;5.90;99.90;;;;;;5110263;28;20085;-67
2021/04/11 09:24:09;;;;;;;9.07;7.13;;;5.80;99.90;;;;;;5111122;28;20035;-67
2021/04/11 09:29:50;;;;;;;10.73;7.55;;;5.80;99.90;;;;;;5112179;27;20408;-67
2021/04/11 09:32:37;;;;;;;10.45;7.72;;;5.70;99.90;;;;;;5111925;28;20482;-67
2021/04/11 09:35:15;;;;;;;10.95;7.72;;;5.80;99.90;;;;;;5111570;28;20464;-66
2021/04/11 09:38:01;;;;;;;11.35;7.95;;;5.70;99.90;;;;;;5110789;28;20140;-67
2021/04/11 09:41:07;;;;;;;11.88;7.95;;;5.60;99.90;;;;;;5093000;28;20027;-66
2021/04/11 09:44:12;;;;;;;11.98;7.93;;;5.60;99.90;;;;;;5110921;28;20028;-66
2021/04/11 09:50:05;;;;;;;11.02;8.20;;;5.60;99.90;;;;;;5071637;28;20419;-67
2021/04/11 09:52:47;;;;;;;10.85;8.10;;;5.60;99.90;;;;;;5069702;28;20037;-66
2021/04/11 09:55:28;;;;;;;12.52;7.68;;;5.60;99.90;;;;;;5071248;28;20048;-67
2021/04/11 09:58:33;;;;;;;8.43;6.55;;;5.70;99.90;;;;;;5071244;28;20082;-66
2021/04/11 10:01:34;;;;;;;11.32;6.82;;;5.50;99.90;;;;;;5070501;28;20112;-66
2021/04/11 10:04:39;;;;;;;9.75;6.95;;;5.60;99.90;;;;;;5070871;28;20024;-66
2021/04/11 10:07:32;;;;;;;12.25;6.93;;;5.50;99.90;;;;;;5069240;28;20123;-66
2021/04/11 10:10:28;;;;;;;9.25;6.72;;;5.50;99.90;;;;;;5070645;28;20020;-67
2021/04/11 10:16:14;;;;;;;8.23;6.25;;;5.80;99.90;;;;;;5091869;28;20348;-66
2021/04/11 10:18:56;;;;;;;6.72;5.43;;;6.00;99.90;;;;;;5090804;28;20035;-66
2021/04/11 10:21:50;;;;;;;5.88;4.93;;;5.90;99.90;;;;;;5090924;28;20025;-66
2021/04/11 10:24:43;;;;;;;6.05;4.70;;;6.00;99.90;;;;;;5090773;28;20028;-66
2021/04/11 10:27:20;;;;;;;7.03;5.35;;;5.70;99.90;;;;;;5091413;28;20020;-66
2021/04/11 10:29:48;;;;;;;6.97;5.03;;;5.60;99.90;;;;;;5090979;28;20024;-66
2021/04/11 10:32:38;;;;;;;5.63;4.75;;;5.60;99.90;;;;;;5091273;28;20024;-66
2021/04/11 10:35:11;;;;;;;7.45;5.22;;;5.60;99.90;;;;;;5089147;28;20428;-66
2021/04/11 10:37:41;;;;;;;4.93;4.43;;;5.70;99.90;;;;;;5091133;28;20540;-67
2021/04/11 10:40:34;;;;;;;5.50;4.07;;;5.70;99.90;;;;;;5091066;28;20032;-66
2021/04/11 10:43:40;;;;;;;4.60;3.60;;;5.60;99.90;;;;;;5089451;28;20039;-67
2021/04/11 10:46:15;;;;;;;4.53;3.75;;;5.80;99.90;;;;;;5090315;28;20042;-66
2021/04/11 10:49:14;;;;;;;4.63;3.38;;;5.90;99.90;;;;;;5089286;28;20028;-66
2021/04/11 10:52:03;;;;;;;3.90;2.97;;;6.00;99.90;;;;;;5090290;28;20439;-67
2021/04/11 10:57:43;;;;;;;3.42;3.13;;;5.90;99.90;;;;;;5132771;27;20104;-67
2021/04/11 11:00:43;;;;;;;3.38;3.08;;;6.10;99.90;;;;;;5132311;28;20475;-66
2021/04/11 11:06:41;;;;;;;3.08;2.78;;;6.10;99.90;;;;;;5112240;27;20355;-67
2021/04/11 11:09:21;;;;;;;4.65;2.72;;;6.10;99.90;;;;;;5111219;28;20038;-66
2021/04/11 11:12:10;;;;;;;2.92;2.53;;;5.90;99.90;;;;;;5111299;28;20472;-67
2021/04/11 11:15:05;;;;;;;4.38;2.83;;;5.80;99.90;;;;;;5111769;28;20062;-66
2021/04/11 11:18:01;;;;;;;4.50;2.97;;;5.70;99.90;;;;;;5110175;28;20027;-66
2021/04/11 11:20:51;;;;;;;4.25;3.22;;;5.70;99.90;;;;;;5111106;28;20491;-67
2021/04/11 11:23:56;;;;;;;3.03;2.72;;;5.60;99.90;;;;;;5110899;28;20483;-67
2021/04/11 11:26:55;;;;;;;4.03;3.22;;;5.70;99.90;;;;;;5110940;28;20020;-67
2021/04/11 11:29:56;;;;;;;4.07;2.80;;;5.80;99.90;;;;;;5111029;28;20439;-67
2021/04/11 11:32:33;;;;;;;3.10;2.80;;;5.70;99.90;;;;;;5110881;28;20020;-67
2021/04/11 11:35:04;;;;;;;3.33;2.90;;;5.80;99.90;;;;;;5111417;28;20020;-66
2021/04/11 11:37:55;;;;;;;4.32;2.50;;;5.80;99.90;;;;;;5110232;28;20034;-67
2021/04/11 11:40:51;;;;;;;3.10;2.80;;;5.80;99.90;;;;;;5110758;28;20103;-67
2021/04/11 11:43:41;;;;;;;3.58;3.20;;;5.70;99.90;;;;;;5110565;28;20048;-67
2021/04/11 11:46:35;;;;;;;3.45;3.00;;;5.80;99.90;;;;;;5110534;28;20047;-67
2021/04/11 11:49:20;;;;;;;;;;;5.70;99.90;;;;;;5111005;28;20111;-67
2021/04/11 11:51:58;;;;;;;4.65;3.20;;;5.70;99.90;;;;;;5110526;28;19904;-67
2021/04/11 11:54:33;;;;;;;3.63;3.05;;;5.70;99.90;;;;;;5110530;28;20016;-66
2021/04/11 11:57:29;;;;;;;4.72;3.40;;;5.80;99.90;;;;;;5110660;28;20355;-66
2021/04/11 12:00:04;;;;;;;6.80;3.85;;;5.90;99.90;;;;;;5110578;28;20031;-66
2021/04/11 12:02:57;;;;;;;3.90;3.40;;;5.80;99.90;;;;;;5110903;28;20491;-67
2021/04/11 12:05:35;;;;;;;4.82;3.53;;;5.70;99.90;;;;;;5110102;28;20493;-66
2021/04/11 12:08:26;;;;;;;4.18;3.30;;;5.70;99.90;;;;;;5110529;28;20016;-66
2021/04/11 12:11:14;;;;;;;5.45;3.75;;;5.70;99.90;;;;;;5110094;28;20020;-66
2021/04/11 12:13:53;;;;;;;5.00;3.15;;;5.80;99.90;;;;;;5110610;28;20035;-66
2021/04/11 12:16:32;;;;;;;5.97;3.75;;;5.70;99.90;;;;;;5103133;28;20458;-66
2021/04/11 12:21:46;;;;;;;3.92;3.55;;;5.60;99.90;;;;;;5091781;27;20401;-67
2021/04/11 12:24:22;;;;;;;3.25;2.55;;;5.80;99.90;;;;;;5091582;28;20025;-67
2021/04/11 12:26:51;;;;;;;5.30;3.35;;;5.70;99.90;;;;;;5089941;28;20052;-67
2021/04/11 12:29:21;;;;;;;4.05;3.40;;;5.80;99.90;;;;;;5091158;28;20380;-66
2021/04/11 12:31:53;;;;;;;4.05;3.42;;;5.90;99.90;;;;;;5090149;28;20016;-66
2021/04/11 12:34:33;;;;;;;5.20;3.13;;;6.00;99.90;;;;;;5091289;28;20027;-67
2021/04/11 12:37:12;;;;;;;3.83;3.38;;;6.20;99.90;;;;;;5090760;28;20062;-66
2021/04/11 12:39:39;;;;;;;4.43;2.88;;;6.10;99.90;;;;;;5089715;28;20431;-66
2021/04/11 12:42:24;;;;;;;4.95;2.70;;;6.00;99.90;;;;;;5091221;28;20081;-66
2021/04/11 12:45:10;;;;;;;6.38;3.00;;;5.90;99.90;;;;;;5090879;28;20109;-67
2021/04/11 12:48:08;;;;;;;3.53;2.78;;;5.80;99.90;;;;;;5089335;28;20062;-66
2021/04/11 12:50:40;;;;;;;5.72;2.85;;;5.90;99.90;;;;;;5090555;28;20030;-67
2021/04/11 12:53:43;;;;;;;5.60;3.28;;;5.90;99.90;;;;;;5091290;28;20527;-66
2021/04/11 12:56:13;;;;;;;5.80;3.30;;;5.70;99.90;;;;;;5090037;28;20020;-66
2021/04/11 12:58:52;;;;;;;4.47;2.60;;;5.80;99.90;;;;;;5089347;28;20092;-67
2021/04/11 13:01:25;;;;;;;4.35;3.20;;;5.90;99.90;;;;;;5090375;28;20058;-67
2021/04/11 13:07:02;;;;;;;5.18;2.92;;;6.20;99.90;;;;;;5090902;28;20763;-66
2021/04/11 13:09:57;;;;;;;6.63;2.60;;;6.00;99.90;;;;;;5091551;28;20112;-66
2021/04/11 13:12:54;;;;;;;4.93;2.88;;;6.20;99.90;;;;;;5090751;28;20086;-67
2021/04/11 13:15:45;;;;;;;6.20;3.03;;;6.20;99.90;;;;;;5090126;28;20119;-66
2021/04/11 13:18:25;;;;;;;6.25;2.97;;;6.10;99.90;;;;;;5089719;28;20028;-67
2021/04/11 13:23:35;;;;;;;5.32;3.42;;;6.20;99.90;;;;;;5091730;28;20348;-67
2021/04/11 13:26:17;;;;;;;4.07;3.30;;;6.30;99.90;;;;;;5091493;28;20047;-67
2021/04/11 13:28:54;;;;;;;9.25;3.45;;;6.30;99.90;;;;;;5091408;28;20522;-67
2021/04/11 13:31:26;;;;;;;4.18;3.40;;;6.30;99.90;;;;;;5089575;28;20062;-67
2021/04/11 13:34:03;;;;;;;3.45;3.03;;;6.40;99.90;;;;;;5091141;28;20021;-66
2021/04/11 13:36:48;;;;;;;3.80;3.22;;;6.30;99.90;;;;;;5091030;28;20023;-67
2021/04/11 13:39:24;;;;;;;7.22;3.60;;;6.30;99.90;;;;;;5089745;28;20137;-67
2021/04/11 13:42:05;;;;;;;4.63;3.90;;;6.40;99.90;;;;;;5090042;28;20090;-67
2021/04/11 13:44:47;;;;;;;5.50;3.45;;;6.60;99.90;;;;;;5089854;28;20365;-66
2021/04/11 13:47:41;;;;;;;4.28;3.03;;;6.80;99.90;;;;;;5091096;28;20019;-67
2021/04/11 13:50:34;;;;;;;9.52;4.18;;;7.00;99.90;;;;;;5091161;28;20020;-67
2021/04/11 13:53:07;;;;;;;5.72;3.03;;;7.20;99.90;;;;;;5090405;28;20021;-67
2021/04/11 13:55:49;;;;;;;5.95;3.17;;;7.40;99.90;;;;;;5090968;28;20419;-67
2021/04/11 14:01:17;;;;;;;6.90;3.33;;;7.60;99.90;;;;;;5112132;27;20404;-66
2021/04/11 14:03:50;;;;;;;6.07;3.20;;;7.40;99.90;;;;;;5110867;28;20035;-66
2021/04/11 14:06:28;;;;;;;6.20;2.97;;;7.10;99.90;;;;;;5110706;28;20024;-66
2021/04/11 14:09:02;;;;;;;5.28;2.70;;;7.00;99.90;;;;;;5111799;28;20016;-66
2021/04/11 14:11:34;;;;;;;4.45;3.15;;;7.10;99.90;;;;;;5111977;28;20028;-66
2021/04/11 14:14:10;;;;;;;6.85;2.85;;;7.00;99.90;;;;;;5110269;28;20039;-66
2021/04/11 14:16:45;;;;;;;5.60;2.97;;;6.90;99.90;;;;;;5111090;28;20077;-66
2021/04/11 14:19:18;;;;;;;4.20;2.55;;;7.00;99.90;;;;;;5111543;28;20532;-66
2021/04/11 14:21:49;;;;;;;7.85;3.40;;;7.10;99.90;;;;;;5111590;28;20020;-66
2021/04/11 14:24:28;;;;;;;6.05;2.97;;;7.20;99.90;;;;;;5111486;28;20028;-66
2021/04/11 14:30:09;;;;;;;8.20;3.15;;;7.50;99.90;;;;;;5112204;27;20405;-66
2021/04/11 14:32:42;;;;;;;6.25;2.88;;;7.50;99.90;;;;;;5111213;28;20028;-66
2021/04/11 14:35:21;;;;;;;4.05;3.00;;;7.60;99.90;;;;;;5111301;28;20016;-67
2021/04/11 14:38:02;;;;;;;5.88;2.80;;;7.70;99.90;;;;;;5111513;28;20484;-67
2021/04/11 14:40:32;;;;;;;4.95;2.83;;;7.60;99.90;;;;;;5111217;28;20039;-66
2021/04/11 14:43:21;;;;;;;3.53;2.63;;;7.40;99.90;;;;;;5111714;28;20028;-67
2021/04/11 14:45:52;;;;;;;4.75;2.78;;;7.20;99.90;;;;;;5110960;28;20027;-67
2021/04/11 14:48:26;;;;;;;5.40;2.55;;;7.10;99.90;;;;;;5109722;28;20111;-66
2021/04/11 14:50:53;;;;;;;7.50;3.67;;;7.00;99.90;;;;;;5111479;28;20480;-67
2021/04/11 14:53:36;;;;;;;3.92;2.80;;;6.90;99.90;;;;;;5111525;28;20448;-67
2021/04/11 14:56:42;;;;;;;6.38;3.42;;;6.80;99.90;;;;;;5111497;28;20376;-67
2021/04/11 14:59:31;;;;;;;5.03;3.17;;;6.80;99.90;;;;;;5110750;28;20012;-66